OCN7460 EDDF-HEMA
Flight info
| Callsign | OCN7460 |
|---|---|
| Flight time | N/A |
| Altitude | 37000 |
| Route | CINDY8S CINDY Z74 LAMPU DCT NOMBO Y161 MAH DCT VAVOR DCT RADIZ/N0464F390 DCT EVAXI DCT DARZA DCT RUGOG DCT RASTU DCT GLOMY DCT PETAK DCT ADDER DCT DIMIS DCT IPTES UL604 SALUN N705 MMA DCT TAKRI P751 LXR M999 ELELI V730 MAK |
| Aircraft | A333/H-SDE3GHIJ2J3J5M1RVWXY/LB2D1 |
Departure
| Time | 2026-04-15 21:37 |
|---|---|
| Airport | Frankfurt Main Airport (EDDF) |
Arrival
| Time | N/A |
|---|---|
| Airport | Marsa Alam International Airport (HEMA) |
| Time | Latitude | Longitude | Altitude | Speed | Heading |
|---|---|---|---|---|---|
| 2026-04-15 20:55 | 50.04830 | 8.57620 | 364 ft | 0 kts | 202° |
| 2026-04-15 21:23 | 50.04840 | 8.57627 | 366 ft | 3 kts | 202° |
| 2026-04-15 21:24 | 50.04858 | 8.57639 | 364 ft | 3 kts | 204° |
| 2026-04-15 21:24 | 50.04875 | 8.57649 | 368 ft | 3 kts | 186° |
| 2026-04-15 21:24 | 50.04889 | 8.57649 | 368 ft | 3 kts | 151° |
| 2026-04-15 21:24 | 50.04902 | 8.57634 | 366 ft | 3 kts | 122° |
| 2026-04-15 21:25 | 50.04910 | 8.57611 | 364 ft | 1 kts | 114° |
| 2026-04-15 21:25 | 50.04909 | 8.57615 | 364 ft | 2 kts | 114° |
| 2026-04-15 21:25 | 50.04908 | 8.57617 | 364 ft | 0 kts | 114° |
| 2026-04-15 21:28 | 50.04905 | 8.57628 | 364 ft | 5 kts | 114° |
| 2026-04-15 21:29 | 50.04896 | 8.57658 | 366 ft | 1 kts | 114° |
| 2026-04-15 21:29 | 50.04894 | 8.57666 | 366 ft | 0 kts | 114° |
| 2026-04-15 21:29 | 50.04894 | 8.57667 | 366 ft | 0 kts | 114° |
| 2026-04-15 21:30 | 50.04893 | 8.57671 | 366 ft | 1 kts | 114° |
| 2026-04-15 21:30 | 50.04869 | 8.57757 | 370 ft | 14 kts | 113° |
| 2026-04-15 21:30 | 50.04820 | 8.57884 | 369 ft | 12 kts | 144° |
| 2026-04-15 21:30 | 50.04736 | 8.57917 | 365 ft | 14 kts | 193° |
| 2026-04-15 21:31 | 50.04635 | 8.57592 | 367 ft | 27 kts | 250° |
| 2026-04-15 21:31 | 50.04569 | 8.57317 | 368 ft | 27 kts | 249° |
| 2026-04-15 21:32 | 50.04435 | 8.56755 | 372 ft | 28 kts | 250° |
| 2026-04-15 21:32 | 50.04365 | 8.56464 | 366 ft | 29 kts | 249° |
| 2026-04-15 21:32 | 50.04293 | 8.56164 | 365 ft | 30 kts | 249° |
| 2026-04-15 21:32 | 50.04220 | 8.55856 | 365 ft | 31 kts | 249° |
| 2026-04-15 21:33 | 50.04144 | 8.55539 | 363 ft | 30 kts | 249° |
| 2026-04-15 21:33 | 50.04081 | 8.55277 | 367 ft | 25 kts | 250° |
| 2026-04-15 21:33 | 50.04019 | 8.55019 | 363 ft | 26 kts | 250° |
| 2026-04-15 21:33 | 50.03953 | 8.54742 | 362 ft | 29 kts | 249° |
| 2026-04-15 21:34 | 50.03882 | 8.54445 | 358 ft | 27 kts | 249° |
| 2026-04-15 21:34 | 50.03800 | 8.54219 | 363 ft | 23 kts | 244° |
| 2026-04-15 21:34 | 50.03743 | 8.53982 | 358 ft | 24 kts | 250° |
| 2026-04-15 21:34 | 50.03683 | 8.53732 | 355 ft | 25 kts | 249° |
| 2026-04-15 21:35 | 50.03617 | 8.53471 | 353 ft | 27 kts | 249° |
| 2026-04-15 21:35 | 50.03551 | 8.53196 | 347 ft | 28 kts | 250° |
| 2026-04-15 21:35 | 50.03486 | 8.52924 | 348 ft | 27 kts | 248° |
| 2026-04-15 21:35 | 50.03424 | 8.52692 | 352 ft | 21 kts | 248° |
| 2026-04-15 21:36 | 50.03337 | 8.52596 | 345 ft | 20 kts | 184° |
| 2026-04-15 21:36 | 50.02976 | 8.52598 | 345 ft | 91 kts | 179° |
| 2026-04-15 21:36 | 50.02103 | 8.52611 | 352 ft | 156 kts | 179° |
| 2026-04-15 21:36 | 50.00902 | 8.52626 | 568 ft | 182 kts | 181° |
| 2026-04-15 21:37 | 49.99623 | 8.52603 | 1172 ft | 185 kts | 181° |
| 2026-04-15 21:37 | 49.98270 | 8.52602 | 1489 ft | 209 kts | 180° |
| 2026-04-15 21:37 | 49.96708 | 8.52619 | 1490 ft | 237 kts | 180° |
| 2026-04-15 21:37 | 49.95089 | 8.53025 | 1530 ft | 236 kts | 153° |
| 2026-04-15 21:38 | 49.93847 | 8.54710 | 2123 ft | 244 kts | 126° |
| 2026-04-15 21:38 | 49.93174 | 8.57235 | 2459 ft | 264 kts | 95° |
| 2026-04-15 21:38 | 49.93305 | 8.60033 | 3219 ft | 266 kts | 83° |
| 2026-04-15 21:38 | 49.93458 | 8.62922 | 3941 ft | 269 kts | 87° |
| 2026-04-15 21:39 | 49.93577 | 8.65835 | 4680 ft | 272 kts | 87° |
| 2026-04-15 21:39 | 49.93705 | 8.68771 | 5421 ft | 274 kts | 86° |
| 2026-04-15 21:39 | 49.93732 | 8.71735 | 6138 ft | 276 kts | 102° |
| 2026-04-15 21:39 | 49.93007 | 8.74445 | 6834 ft | 274 kts | 130° |
| 2026-04-15 21:40 | 49.91588 | 8.76427 | 7433 ft | 277 kts | 151° |
| 2026-04-15 21:40 | 49.89905 | 8.77927 | 8082 ft | 281 kts | 154° |
| 2026-04-15 21:40 | 49.88185 | 8.79404 | 8707 ft | 285 kts | 152° |
| 2026-04-15 21:40 | 49.86451 | 8.80940 | 9338 ft | 290 kts | 152° |
| 2026-04-15 21:41 | 49.84865 | 8.82888 | 9929 ft | 297 kts | 128° |
| 2026-04-15 21:41 | 49.83769 | 8.85633 | 10454 ft | 304 kts | 117° |
| 2026-04-15 21:41 | 49.82815 | 8.88687 | 10554 ft | 326 kts | 116° |
| 2026-04-15 21:41 | 49.81809 | 8.91962 | 10677 ft | 347 kts | 117° |
| 2026-04-15 21:42 | 49.80741 | 8.95322 | 11328 ft | 347 kts | 117° |
| 2026-04-15 21:42 | 49.79649 | 8.98688 | 11909 ft | 352 kts | 118° |
| 2026-04-15 21:42 | 49.78539 | 9.02079 | 12530 ft | 354 kts | 118° |
| 2026-04-15 21:42 | 49.77418 | 9.05498 | 13126 ft | 358 kts | 118° |
| 2026-04-15 21:43 | 49.76285 | 9.08952 | 13733 ft | 362 kts | 118° |
| 2026-04-15 21:43 | 49.75338 | 9.12573 | 14262 ft | 367 kts | 104° |
| 2026-04-15 21:43 | 49.74847 | 9.16472 | 14791 ft | 370 kts | 99° |
| 2026-04-15 21:43 | 49.74484 | 9.19563 | 15188 ft | 373 kts | 103° |
| 2026-04-15 21:44 | 49.73537 | 9.23287 | 15675 ft | 374 kts | 125° |
| 2026-04-15 21:44 | 49.71816 | 9.26279 | 16172 ft | 373 kts | 146° |
| 2026-04-15 21:44 | 49.69715 | 9.28551 | 16654 ft | 376 kts | 146° |
| 2026-04-15 21:44 | 49.67663 | 9.31188 | 17190 ft | 381 kts | 137° |
| 2026-04-15 21:45 | 49.65838 | 9.34192 | 17682 ft | 386 kts | 132° |
| 2026-04-15 21:45 | 49.64090 | 9.37371 | 18192 ft | 390 kts | 131° |
| 2026-04-15 21:45 | 49.62330 | 9.40571 | 18674 ft | 393 kts | 132° |
| 2026-04-15 21:45 | 49.60456 | 9.43645 | 19135 ft | 393 kts | 144° |
| 2026-04-15 21:46 | 49.58124 | 9.45774 | 19587 ft | 390 kts | 160° |
| 2026-04-15 21:46 | 49.55620 | 9.47418 | 20021 ft | 394 kts | 158° |
| 2026-04-15 21:46 | 49.53161 | 9.49315 | 20493 ft | 397 kts | 153° |
| 2026-04-15 21:46 | 49.50763 | 9.51472 | 20941 ft | 400 kts | 150° |
| 2026-04-15 21:47 | 49.48409 | 9.53686 | 21405 ft | 403 kts | 150° |
| 2026-04-15 21:47 | 49.46002 | 9.55924 | 21877 ft | 405 kts | 151° |
| 2026-04-15 21:47 | 49.43570 | 9.58144 | 22321 ft | 408 kts | 151° |
| 2026-04-15 21:47 | 49.41127 | 9.60359 | 22774 ft | 410 kts | 152° |
| 2026-04-15 21:48 | 49.38655 | 9.62599 | 23226 ft | 413 kts | 151° |
| 2026-04-15 21:48 | 49.36174 | 9.64849 | 23680 ft | 415 kts | 151° |
| 2026-04-15 21:48 | 49.33678 | 9.67113 | 24078 ft | 418 kts | 151° |
| 2026-04-15 21:48 | 49.31369 | 9.69854 | 24407 ft | 424 kts | 134° |
| 2026-04-15 21:49 | 49.29455 | 9.73305 | 24789 ft | 427 kts | 130° |
| 2026-04-15 21:49 | 49.27514 | 9.76772 | 25130 ft | 429 kts | 134° |
| 2026-04-15 21:49 | 49.25432 | 9.80053 | 25489 ft | 431 kts | 137° |
| 2026-04-15 21:49 | 49.23274 | 9.83258 | 25850 ft | 433 kts | 137° |
| 2026-04-15 21:50 | 49.21108 | 9.86485 | 26183 ft | 436 kts | 137° |
| 2026-04-15 21:50 | 49.18949 | 9.89757 | 26529 ft | 438 kts | 137° |
| 2026-04-15 21:50 | 49.16788 | 9.93052 | 26868 ft | 440 kts | 137° |
| 2026-04-15 21:50 | 49.14608 | 9.96368 | 27196 ft | 443 kts | 137° |
| 2026-04-15 21:51 | 49.12417 | 9.99685 | 27524 ft | 445 kts | 137° |
| 2026-04-15 21:51 | 49.10209 | 10.03021 | 27859 ft | 447 kts | 137° |
| 2026-04-15 21:51 | 49.07988 | 10.06374 | 28161 ft | 450 kts | 137° |
| 2026-04-15 21:51 | 49.05756 | 10.09737 | 28512 ft | 452 kts | 137° |
| 2026-04-15 21:52 | 49.03461 | 10.13020 | 28819 ft | 454 kts | 139° |
| 2026-04-15 21:52 | 49.01114 | 10.16263 | 29138 ft | 456 kts | 139° |
| 2026-04-15 21:52 | 48.98765 | 10.19539 | 29462 ft | 459 kts | 139° |
| 2026-04-15 21:52 | 48.96425 | 10.22848 | 29782 ft | 461 kts | 138° |
| 2026-04-15 21:53 | 48.94070 | 10.26185 | 30121 ft | 463 kts | 138° |
| 2026-04-15 21:53 | 48.91733 | 10.29488 | 30401 ft | 465 kts | 139° |
| 2026-04-15 21:53 | 48.89358 | 10.32837 | 30684 ft | 467 kts | 139° |
| 2026-04-15 21:53 | 48.86967 | 10.36205 | 30932 ft | 469 kts | 139° |
| 2026-04-15 21:54 | 48.84565 | 10.39586 | 31196 ft | 471 kts | 139° |
| 2026-04-15 21:54 | 48.82155 | 10.42987 | 31457 ft | 474 kts | 137° |
| 2026-04-15 21:54 | 48.79856 | 10.46586 | 31704 ft | 476 kts | 133° |
| 2026-04-15 21:54 | 48.77629 | 10.50324 | 31958 ft | 478 kts | 133° |
| 2026-04-15 21:55 | 48.75373 | 10.54041 | 32219 ft | 480 kts | 134° |
| 2026-04-15 21:55 | 48.73067 | 10.57721 | 32480 ft | 482 kts | 135° |
| 2026-04-15 21:55 | 48.70741 | 10.61391 | 32695 ft | 484 kts | 135° |
| 2026-04-15 21:55 | 48.68408 | 10.65086 | 32944 ft | 486 kts | 134° |
| 2026-04-15 21:56 | 48.66078 | 10.68797 | 33162 ft | 488 kts | 134° |
| 2026-04-15 21:56 | 48.63735 | 10.72528 | 33400 ft | 490 kts | 134° |
| 2026-04-15 21:56 | 48.61380 | 10.76265 | 33624 ft | 492 kts | 134° |
| 2026-04-15 21:56 | 48.59013 | 10.80011 | 33850 ft | 493 kts | 134° |
| 2026-04-15 21:57 | 48.56645 | 10.83775 | 34063 ft | 495 kts | 134° |
| 2026-04-15 21:57 | 48.54278 | 10.87573 | 34270 ft | 497 kts | 134° |
| 2026-04-15 21:57 | 48.51912 | 10.91372 | 34492 ft | 497 kts | 134° |
| 2026-04-15 21:57 | 48.49546 | 10.95153 | 34781 ft | 496 kts | 134° |
| 2026-04-15 21:58 | 48.47166 | 10.98914 | 35045 ft | 495 kts | 134° |
| 2026-04-15 21:58 | 48.44768 | 11.02631 | 35303 ft | 494 kts | 135° |
| 2026-04-15 21:58 | 48.42376 | 11.06336 | 35540 ft | 493 kts | 134° |
| 2026-04-15 21:58 | 48.39993 | 11.10045 | 35772 ft | 492 kts | 134° |
| 2026-04-15 21:59 | 48.37612 | 11.13755 | 36025 ft | 491 kts | 134° |
| 2026-04-15 21:59 | 48.35237 | 11.17447 | 36238 ft | 491 kts | 134° |
| 2026-04-15 21:59 | 48.32866 | 11.21124 | 36455 ft | 490 kts | 134° |
| 2026-04-15 21:59 | 48.30489 | 11.24803 | 36671 ft | 490 kts | 134° |
| 2026-04-15 22:00 | 48.28149 | 11.28421 | 36864 ft | 489 kts | 134° |
| 2026-04-15 22:00 | 48.25776 | 11.32092 | 37067 ft | 488 kts | 133° |
| 2026-04-15 22:00 | 48.23771 | 11.36170 | 37184 ft | 487 kts | 116° |
| 2026-04-15 22:01 | 48.20962 | 11.45401 | 37215 ft | 487 kts | 117° |
| 2026-04-15 22:01 | 48.17506 | 11.54149 | 37213 ft | 488 kts | 121° |
| 2026-04-15 22:02 | 48.14061 | 11.62899 | 37212 ft | 487 kts | 118° |
| 2026-04-15 22:02 | 48.10674 | 11.71674 | 37220 ft | 487 kts | 119° |
| 2026-04-15 22:03 | 48.07248 | 11.80419 | 37237 ft | 487 kts | 119° |
| 2026-04-15 22:03 | 48.04405 | 11.87672 | 37228 ft | 486 kts | 119° |
| 2026-04-15 22:04 | 48.00979 | 11.96392 | 37231 ft | 486 kts | 119° |
| 2026-04-15 22:04 | 47.97551 | 12.05082 | 37227 ft | 485 kts | 119° |
| 2026-04-15 22:05 | 47.94120 | 12.13754 | 37225 ft | 485 kts | 119° |
| 2026-04-15 22:05 | 47.89983 | 12.21617 | 37226 ft | 487 kts | 143° |
| 2026-04-15 22:06 | 47.84171 | 12.26830 | 37227 ft | 488 kts | 143° |
| 2026-04-15 22:06 | 47.79053 | 12.33365 | 37224 ft | 488 kts | 136° |
| 2026-04-15 22:07 | 47.73898 | 12.39950 | 37223 ft | 489 kts | 139° |
| 2026-04-15 22:07 | 47.68651 | 12.46387 | 37221 ft | 489 kts | 139° |
| 2026-04-15 22:08 | 47.63443 | 12.52872 | 37221 ft | 489 kts | 139° |
| 2026-04-15 22:08 | 47.58964 | 12.58255 | 37218 ft | 489 kts | 141° |
| 2026-04-15 22:09 | 47.53599 | 12.64462 | 37218 ft | 489 kts | 140° |
| 2026-04-15 22:09 | 47.48280 | 12.70727 | 37213 ft | 489 kts | 140° |
| 2026-04-15 22:10 | 47.42991 | 12.76916 | 37209 ft | 488 kts | 140° |
| 2026-04-15 22:10 | 47.37662 | 12.83131 | 37207 ft | 488 kts | 140° |
| 2026-04-15 22:11 | 47.32328 | 12.89339 | 37200 ft | 488 kts | 140° |
| 2026-04-15 22:11 | 47.26992 | 12.95533 | 37197 ft | 488 kts | 140° |
| 2026-04-15 22:12 | 47.21645 | 13.01723 | 37198 ft | 489 kts | 140° |
| 2026-04-15 22:12 | 47.16296 | 13.07899 | 37201 ft | 489 kts | 140° |
| 2026-04-15 22:13 | 47.10945 | 13.14061 | 37197 ft | 490 kts | 140° |
| 2026-04-15 22:13 | 47.05580 | 13.20224 | 37195 ft | 489 kts | 140° |
| 2026-04-15 22:14 | 47.00225 | 13.26358 | 37207 ft | 490 kts | 140° |
| 2026-04-15 22:14 | 46.94844 | 13.32506 | 37204 ft | 491 kts | 140° |
| 2026-04-15 22:15 | 46.89462 | 13.38639 | 37208 ft | 491 kts | 140° |
| 2026-04-15 22:15 | 46.84080 | 13.44755 | 37209 ft | 490 kts | 140° |
| 2026-04-15 22:16 | 46.78726 | 13.50824 | 37208 ft | 490 kts | 140° |
| 2026-04-15 22:16 | 46.73393 | 13.57017 | 37209 ft | 489 kts | 137° |
| 2026-04-15 22:17 | 46.68168 | 13.63328 | 37209 ft | 488 kts | 138° |
| 2026-04-15 22:17 | 46.62906 | 13.69581 | 37192 ft | 488 kts | 138° |
| 2026-04-15 22:18 | 46.57647 | 13.75823 | 37197 ft | 488 kts | 138° |
| 2026-04-15 22:18 | 46.52397 | 13.82045 | 37204 ft | 489 kts | 138° |
| 2026-04-15 22:19 | 46.47118 | 13.88280 | 37228 ft | 489 kts | 138° |
| 2026-04-15 22:19 | 46.41959 | 13.94360 | 37213 ft | 490 kts | 138° |
| 2026-04-15 22:20 | 46.38492 | 13.98436 | 37204 ft | 489 kts | 138° |
| 2026-04-15 22:20 | 46.34460 | 14.03170 | 37204 ft | 489 kts | 138° |
| 2026-04-15 22:21 | 46.29175 | 14.09358 | 37201 ft | 489 kts | 138° |
| 2026-04-15 22:21 | 46.23892 | 14.15530 | 37192 ft | 489 kts | 139° |
| 2026-04-15 22:22 | 46.18596 | 14.21700 | 37189 ft | 490 kts | 139° |
| 2026-04-15 22:22 | 46.13285 | 14.27873 | 37190 ft | 490 kts | 139° |
| 2026-04-15 22:23 | 46.07972 | 14.34031 | 37196 ft | 490 kts | 139° |
| 2026-04-15 22:23 | 46.02670 | 14.40163 | 37194 ft | 488 kts | 139° |
| 2026-04-15 22:24 | 45.97391 | 14.46251 | 37194 ft | 485 kts | 139° |
| 2026-04-15 22:24 | 45.92126 | 14.52309 | 37200 ft | 484 kts | 139° |
| 2026-04-15 22:25 | 45.86875 | 14.58334 | 37202 ft | 483 kts | 139° |
| 2026-04-15 22:25 | 45.81629 | 14.64340 | 37200 ft | 482 kts | 140° |
| 2026-04-15 22:26 | 45.76427 | 14.70279 | 37200 ft | 481 kts | 140° |
| 2026-04-15 22:26 | 45.71192 | 14.76243 | 37192 ft | 481 kts | 140° |
| 2026-04-15 22:27 | 45.65954 | 14.82195 | 37197 ft | 481 kts | 140° |
| 2026-04-15 22:27 | 45.60718 | 14.88130 | 37195 ft | 480 kts | 140° |
| 2026-04-15 22:28 | 45.55483 | 14.94049 | 37193 ft | 479 kts | 140° |
| 2026-04-15 22:28 | 45.50255 | 14.99945 | 37188 ft | 479 kts | 141° |
| 2026-04-15 22:29 | 45.45350 | 15.06325 | 37189 ft | 477 kts | 132° |
| 2026-04-15 22:29 | 45.40743 | 15.13158 | 37184 ft | 478 kts | 135° |
| 2026-04-15 22:30 | 45.35995 | 15.19760 | 37184 ft | 478 kts | 135° |
| 2026-04-15 22:30 | 45.31266 | 15.26404 | 37185 ft | 477 kts | 135° |
| 2026-04-15 22:31 | 45.26565 | 15.32971 | 37182 ft | 477 kts | 137° |
| 2026-04-15 22:31 | 45.21625 | 15.39238 | 37181 ft | 476 kts | 138° |
| 2026-04-15 22:32 | 45.16709 | 15.45547 | 37181 ft | 476 kts | 137° |
| 2026-04-15 22:32 | 45.11812 | 15.51867 | 37181 ft | 476 kts | 138° |
| 2026-04-15 22:33 | 45.06902 | 15.58157 | 37182 ft | 476 kts | 138° |
| 2026-04-15 22:33 | 45.01982 | 15.64453 | 37184 ft | 476 kts | 138° |
| 2026-04-15 22:34 | 44.97074 | 15.70718 | 37181 ft | 475 kts | 138° |
| 2026-04-15 22:34 | 44.92205 | 15.77035 | 37184 ft | 475 kts | 135° |
| 2026-04-15 22:35 | 44.87645 | 15.83787 | 37177 ft | 475 kts | 134° |
| 2026-04-15 22:35 | 44.83009 | 15.90443 | 37181 ft | 475 kts | 135° |
| 2026-04-15 22:36 | 44.78363 | 15.97061 | 37182 ft | 475 kts | 135° |
| 2026-04-15 22:36 | 44.73722 | 16.03693 | 37181 ft | 475 kts | 135° |
| 2026-04-15 22:37 | 44.69079 | 16.10298 | 37177 ft | 475 kts | 135° |
| 2026-04-15 22:37 | 44.64436 | 16.16888 | 37176 ft | 474 kts | 136° |
| 2026-04-15 22:38 | 44.59800 | 16.23455 | 37173 ft | 474 kts | 136° |
| 2026-04-15 22:38 | 44.55188 | 16.29970 | 37171 ft | 473 kts | 136° |
| 2026-04-15 22:39 | 44.50549 | 16.36509 | 37169 ft | 473 kts | 136° |
| 2026-04-15 22:39 | 44.45906 | 16.43037 | 37161 ft | 473 kts | 136° |
| 2026-04-15 22:40 | 44.41266 | 16.49546 | 37166 ft | 472 kts | 136° |
| 2026-04-15 22:40 | 44.36621 | 16.56045 | 37164 ft | 472 kts | 136° |
| 2026-04-15 22:41 | 44.29674 | 16.65738 | 37164 ft | 472 kts | 136° |
| 2026-04-15 22:41 | 44.25022 | 16.72209 | 37162 ft | 472 kts | 136° |
| 2026-04-15 22:42 | 44.20364 | 16.78674 | 37161 ft | 472 kts | 137° |
| 2026-04-15 22:42 | 44.15697 | 16.85135 | 37160 ft | 472 kts | 137° |
| 2026-04-15 22:43 | 44.11036 | 16.91573 | 37157 ft | 472 kts | 137° |
| 2026-04-15 22:43 | 44.06370 | 16.98002 | 37157 ft | 472 kts | 137° |
| 2026-04-15 22:44 | 44.01700 | 17.04423 | 37155 ft | 472 kts | 137° |
| 2026-04-15 22:44 | 43.97023 | 17.10837 | 37150 ft | 472 kts | 137° |
| 2026-04-15 22:45 | 43.92347 | 17.17236 | 37154 ft | 472 kts | 137° |
| 2026-04-15 22:45 | 43.87693 | 17.23590 | 37148 ft | 473 kts | 137° |
| 2026-04-15 22:46 | 43.82998 | 17.29984 | 37146 ft | 473 kts | 137° |
| 2026-04-15 22:46 | 43.78309 | 17.36356 | 37142 ft | 472 kts | 137° |
| 2026-04-15 22:47 | 43.73623 | 17.42708 | 37143 ft | 471 kts | 137° |
| 2026-04-15 22:47 | 43.68942 | 17.49039 | 37128 ft | 471 kts | 137° |
| 2026-04-15 22:48 | 43.64263 | 17.55353 | 37130 ft | 470 kts | 138° |
| 2026-04-15 22:48 | 43.59584 | 17.61652 | 37122 ft | 469 kts | 138° |
| 2026-04-15 22:49 | 43.54894 | 17.67885 | 37101 ft | 467 kts | 144° |
| 2026-04-15 22:49 | 43.49445 | 17.72680 | 37092 ft | 464 kts | 150° |
| 2026-04-15 22:50 | 43.44094 | 17.77671 | 37083 ft | 465 kts | 147° |
| 2026-04-15 22:50 | 43.38819 | 17.82787 | 37078 ft | 464 kts | 148° |
| 2026-04-15 22:51 | 43.33504 | 17.87816 | 37074 ft | 463 kts | 148° |
| 2026-04-15 22:51 | 43.29099 | 17.91997 | 37075 ft | 463 kts | 148° |
| 2026-04-15 22:52 | 43.23800 | 17.97019 | 37075 ft | 463 kts | 148° |
| 2026-04-15 22:52 | 43.17648 | 18.02832 | 37082 ft | 462 kts | 148° |
| 2026-04-15 22:53 | 43.13206 | 18.07020 | 37087 ft | 462 kts | 148° |
| 2026-04-15 22:53 | 43.07915 | 18.12000 | 37093 ft | 462 kts | 148° |
| 2026-04-15 22:54 | 43.02650 | 18.16943 | 37092 ft | 462 kts | 148° |
| 2026-04-15 22:54 | 42.97358 | 18.21903 | 37093 ft | 462 kts | 148° |
| 2026-04-15 22:55 | 42.92805 | 18.26161 | 37089 ft | 461 kts | 148° |
| 2026-04-15 22:55 | 42.87512 | 18.31102 | 37087 ft | 461 kts | 148° |
| 2026-04-15 22:56 | 42.82210 | 18.36040 | 37085 ft | 461 kts | 148° |
| 2026-04-15 22:56 | 42.76920 | 18.40957 | 37084 ft | 460 kts | 149° |
| 2026-04-15 22:57 | 42.71639 | 18.45854 | 37082 ft | 459 kts | 149° |
| 2026-04-15 22:57 | 42.66366 | 18.50735 | 37080 ft | 458 kts | 149° |
| 2026-04-15 22:58 | 42.61094 | 18.55604 | 37076 ft | 458 kts | 149° |
| 2026-04-15 22:58 | 42.55823 | 18.60462 | 37073 ft | 458 kts | 149° |
| 2026-04-15 22:59 | 42.50547 | 18.65315 | 37077 ft | 458 kts | 149° |
| 2026-04-15 22:59 | 42.45272 | 18.70157 | 37070 ft | 458 kts | 149° |
| 2026-04-15 23:00 | 42.40004 | 18.74983 | 37070 ft | 457 kts | 149° |
| 2026-04-15 23:00 | 42.34777 | 18.79761 | 37073 ft | 456 kts | 149° |
| 2026-04-15 23:01 | 42.29528 | 18.84549 | 37074 ft | 455 kts | 149° |
| 2026-04-15 23:01 | 42.24563 | 18.89068 | 37070 ft | 455 kts | 149° |